Nearby METAR Reports

 

KMUI - Muir Aaf/Indiant, Pennsylvania, USA
Distance from station: WNW 5mi, 8km
Updated: 07/24/2024 11:55am
Mostly cloudy
Mostly cloudy
 Wind from S
Wind: S 3 mph, 6 km/h
Temperature: 81°F, 27°C
Heat Index: 85°F, 29°C
Dew Point: 70°F, 21°C
Humidity: 70%
Barometer: 1019.3 hPa
Clouds: Mostly cloudy
Visibility: 10 miles, 16 km
Cloud details: Mostly cloudy 2000 ft
Mostly cloudy 2800 ft
Mostly cloudy 15000 ft
2024/07/24 15:55 KMUI 241555Z 18003KT 10SM BKN020 BKN028 BKN150 27/21 A3010 RMK AO2A SLP192 T02710211
KMDT - Middletown, Pennsylvania, USA
Distance from station: SW 21mi, 34km
Updated: 07/24/2024 11:56am
Overcast
Overcast
 Wind from S
Wind: S 3 mph, 6 km/h
Temperature: 82°F, 28°C
Heat Index: 86°F, 30°C
Dew Point: 72°F, 22°C
Humidity: 70%
Barometer: 1019.3 hPa
Clouds: Overcast
Visibility: 10 miles, 16 km
Cloud details: Few Clouds 5000 ft
Partly cloudy 16000 ft
Overcast 25000 ft
2024/07/24 15:56 KMDT 241556Z 19003KT 10SM FEW050 SCT160 OVC250 28/22 A3010 RMK AO2 SLP191 T02830222
 
KZER - Pottsville, Pennsylvania, USA
Distance from station: NNE 21mi, 34km
Updated: 07/24/2024 11:55am
Mostly cloudy
Mostly cloudy
 Wind from SSE
Wind: SSE 7 mph, 11 km/h
Temperature: 73°F, 23°C
Dew Point: 68°F, 20°C
Humidity: 83%
Barometer: 1022 hPa
Clouds: Mostly cloudy
Visibility: 7 miles, 11 km
Cloud details: Mostly cloudy 1200 ft
Mostly cloudy 1800 ft
Mostly cloudy 2800 ft
2024/07/24 15:55 KZER 241555Z AUTO 16006KT 7SM BKN012 BKN018 BKN028 23/20 A3018 RMK AO2
KLNS - Lancaster, Pennsylvania, USA
Distance from station: SSE 22mi, 35km
Updated: 07/24/2024 11:53am
Partly cloudy
Partly cloudy
 Wind from calm
Wind: Calm
Temperature: 82°F, 28°C
Heat Index: 86°F, 30°C
Dew Point: 72°F, 22°C
Humidity: 70%
Barometer: 1019.6 hPa
Clouds: Partly cloudy
Visibility: 10 miles, 16 km
Cloud details: Partly cloudy 2200 ft
Partly cloudy 9500 ft
2024/07/24 15:53 KLNS 241553Z 00000KT 10SM SCT022 SCT095 28/22 A3011 RMK AO2 SLP194 T02780222
 
KCXY - Harrisburg, Pennsylvania, USA
Distance from station: WSW 24mi, 38km
Updated: 07/24/2024 11:56am
Partly cloudy
Partly cloudy
 Wind from NNW
Wind: NNW 5 mph, 7 km/h
Temperature: 84°F, 29°C
Heat Index: 88°F, 31°C
Dew Point: 70°F, 21°C
Humidity: 62%
Barometer: 1019.3 hPa
Clouds: Partly cloudy
Visibility: 10 miles, 16 km
Cloud details: Partly cloudy 3500 ft
2024/07/24 15:56 KCXY 241556Z 33004KT 10SM R08/6000FT SCT035 29/21 A3010 RMK AO2 SLP193 T02890206
KRDG - Reading, Pennsylvania, USA
Distance from station: E 27mi, 43km
Updated: 07/24/2024 11:54am
Mostly cloudy
Mostly cloudy
 Wind from SE
Wind: SE 6 mph, 9 km/h
Temperature: 81°F, 27°C
Heat Index: 85°F, 29°C
Dew Point: 70°F, 21°C
Humidity: 70%
Barometer: 1019.3 hPa
Clouds: Mostly cloudy
Visibility: 8 miles, 13 km
Cloud details: Partly cloudy 2100 ft
Mostly cloudy 10000 ft
2024/07/24 15:54 KRDG 241554Z 13005KT 8SM SCT021 BKN100 27/21 A3010 RMK AO2 SLP195 T02720211
 
KSEG - Selinsgrove, Pennsylvania, USA
Distance from station: NW 35mi, 57km
Updated: 07/24/2024 11:53am
Mostly cloudy
Mostly cloudy
 Wind from varies
Wind: varies 5 mph, 7 km/h
Temperature: 81°F, 27°C
Heat Index: 85°F, 29°C
Dew Point: 70°F, 21°C
Humidity: 70%
Barometer: 1019.6 hPa
Clouds: Mostly cloudy
Visibility: 10 miles, 16 km
Cloud details: Partly cloudy 2000 ft
Mostly cloudy 2700 ft
2024/07/24 15:53 KSEG 241553Z AUTO VRB04KT 10SM SCT020 BKN027 27/21 A3011 RMK AO2 SLP194 T02670211
KTHV - York, Pennsylvania, USA
Distance from station: SSW 40mi, 64km
Updated: 07/24/2024 12:00pm
Mostly cloudy
Mostly cloudy
 Wind from calm
Wind: Calm
Temperature: 81°F, 27°C
Heat Index: 85°F, 29°C
Dew Point: 72°F, 22°C
Humidity: 74%
Barometer: 1020 hPa
Clouds: Mostly cloudy
Visibility: 10 miles, 16 km
Cloud details: Mostly cloudy 2100 ft
2024/07/24 16:00 KTHV 241600Z AUTO 00000KT 10SM BKN021 27/22 A3012 RMK AO2 T02720217
 
KMQS - Coatesville, Pennsylvania, USA
Distance from station: SE 43mi, 70km
Updated: 07/24/2024 11:55am
Partly cloudy
Partly cloudy
 Wind from calm
Wind: Calm
Temperature: 81°F, 27°C
Heat Index: 87°F, 31°C
Dew Point: 75°F, 24°C
Humidity: 84%
Barometer: 1020.7 hPa
Clouds: Partly cloudy
Visibility: 10 miles, 16 km
Cloud details: Partly cloudy 5000 ft
Partly cloudy 7500 ft
Partly cloudy 11000 ft
2024/07/24 15:55 KMQS 241555Z AUTO 00000KT 10SM SCT050 SCT075 SCT110 27/24 A3014 RMK AO2
K22N - Lehighton, Pennsylvania, USA
Distance from station: NE 46mi, 74km
Updated: 07/24/2024 11:55am
Overcast
Overcast
 Wind from calm
Wind: Calm
Temperature: 77°F, 25°C
Dew Point: 70°F, 21°C
Humidity: 79%
Barometer: 1020.7 hPa
Clouds: Overcast
Visibility: 10 miles, 16 km
Cloud details: Overcast 1500 ft
2024/07/24 15:55 K22N 241555Z AUTO 00000KT 10SM OVC015 25/21 A3014 RMK AO2
 
KHZL - Hazleton, Pennsylvania, USA
Distance from station: NNE 47mi, 76km
Updated: 07/24/2024 11:55am
Partly cloudy
Partly cloudy
 Wind from SE
Wind: SE 5 mph, 7 km/h
Temperature: 77°F, 25°C
Dew Point: 68°F, 20°C
Humidity: 74%
Barometer: 1022.4 hPa
Clouds: Partly cloudy
Cloud details: Partly cloudy 2100 ft
Partly cloudy 10000 ft
2024/07/24 15:55 KHZL 241555Z AUTO 14004KT SCT021 SCT100 25/20 A3019 RMK AO2 PWINO
KPTW - Pottstown, Pennsylvania, USA
Distance from station: ESE 50mi, 81km
Updated: 07/24/2024 11:54am
Light rain, Overcast
Light rain, Overcast
 Wind from calm
Wind: Calm
Temperature: 79°F, 26°C
Dew Point: 73°F, 23°C
Humidity: 84%
Barometer: 1020.7 hPa
Summary: Light rain
Clouds: Overcast
Visibility: 6 miles, 10 km
Cloud details: Overcast 6500 ft
2024/07/24 15:54 KPTW 241554Z AUTO 00000KT 6SM -RA OVC065 26/23 A3014 RMK AO2 SLP202 P0001 T02610228